Time;durP1;ratioP1;P1;durP2;ratioP2;P2;SDS_P1;SDS_P2;PMS_P1;PMS_P2;Temp;Humidity;BMP_temperature;BMP_pressure;BME280_temperature;BME280_humidity;BME280_pressure;Samples;Min_cycle;Max_cycle;Signal;HPM_P1;HPM_P2
2021/12/18 00:01:47;;;;;;;9.50;3.78;;;;;;;5.43;58.56;101114.75;4369066;32;33274;-80
2021/12/18 00:04:18;;;;;;;7.80;3.87;;;;;;;5.80;57.60;101103.19;4381479;32;33942;-80
2021/12/18 00:06:46;;;;;;;10.50;4.80;;;;;;;5.81;57.56;101111.22;4381231;32;33886;-80
2021/12/18 00:09:13;;;;;;;9.75;4.20;;;;;;;5.67;57.85;101116.22;4355823;32;32509;-79
2021/12/18 00:11:41;;;;;;;11.30;4.47;;;;;;;5.77;57.72;101117.09;4379704;32;31645;-80
2021/12/18 00:14:09;;;;;;;10.40;4.45;;;;;;;5.73;57.74;101112.94;4379691;32;33911;-79
2021/12/18 00:16:37;;;;;;;9.63;4.15;;;;;;;5.79;57.56;101110.50;4378507;32;33882;-80
2021/12/18 00:19:05;;;;;;;9.45;3.90;;;;;;;5.38;58.53;101116.19;4379698;32;33932;-80
2021/12/18 00:21:36;;;;;;;10.27;4.90;;;;;;;5.17;59.33;101119.88;4379774;32;34052;-79
2021/12/18 00:24:05;;;;;;;14.20;4.97;;;;;;;5.55;58.60;101124.53;4379177;32;32176;-80
2021/12/18 00:26:33;;;;;;;9.77;4.22;;;;;;;5.58;58.54;101128.81;4379770;32;34301;-80
2021/12/18 00:29:01;;;;;;;12.15;4.72;;;;;;;5.58;58.33;101132.41;4379448;32;32462;-80
2021/12/18 00:31:28;;;;;;;10.27;4.93;;;;;;;5.35;59.07;101128.22;4393289;32;33298;-79
2021/12/18 00:33:59;;;;;;;11.32;4.62;;;;;;;4.89;60.85;101132.37;4379766;32;33630;-80
2021/12/18 00:36:26;;;;;;;11.18;4.40;;;;;;;5.39;59.29;101128.78;4379519;32;34634;-79
2021/12/18 00:38:54;;;;;;;12.00;4.60;;;;;;;5.05;60.54;101131.87;4367041;32;32336;-80
2021/12/18 00:41:47;;;;;;;11.48;4.43;;;;;;;5.33;59.50;101146.53;4367161;32;34292;-79
2021/12/18 00:44:16;;;;;;;12.75;4.30;;;;;;;4.90;60.80;101144.12;4379710;32;33644;-80
2021/12/18 00:46:45;;;;;;;12.68;4.62;;;;;;;4.81;60.70;101131.34;4379731;32;34358;-80
2021/12/18 00:49:16;;;;;;;10.95;4.85;;;;;;;4.97;60.73;101126.25;4379498;32;34058;-79
2021/12/18 00:51:45;;;;;;;10.32;4.65;;;;;;;4.78;61.50;101135.19;4379636;32;33616;-80
2021/12/18 00:54:12;;;;;;;7.82;4.25;;;;;;;4.88;61.46;101122.50;4384368;32;33594;-80
2021/12/18 00:56:42;;;;;;;10.75;4.72;;;;;;;4.90;61.15;101128.66;4379537;32;35457;-79
2021/12/18 00:59:10;;;;;;;12.37;4.65;;;;;;;5.09;60.56;101127.88;4379481;32;32495;-79
2021/12/18 01:01:41;;;;;;;7.65;4.20;;;;;;;4.80;62.03;101135.94;4378335;32;32854;-79
2021/12/18 01:04:09;;;;;;;9.52;4.75;;;;;;;4.93;61.32;101127.53;4392902;32;33753;-80
2021/12/18 01:06:37;;;;;;;12.00;5.80;;;;;;;5.21;60.83;101125.88;4391811;32;35442;-79
2021/12/18 01:09:06;;;;;;;11.07;5.00;;;;;;;4.44;63.34;101133.75;4379366;32;33926;-80
2021/12/18 01:11:40;;;;;;;9.23;4.72;;;;;;;4.96;61.50;101136.28;4379369;32;33097;-80
2021/12/18 01:25:06;;;;;;;10.13;4.78;;;;;;;4.59;63.44;101140.53;4391717;32;34781;-80
2021/12/18 01:27:36;;;;;;;15.23;4.95;;;;;;;4.69;62.99;101149.63;4391215;32;35238;-80
2021/12/18 01:30:06;;;;;;;11.20;4.75;;;;;;;4.62;63.35;101160.16;4378776;32;34494;-80
2021/12/18 01:32:34;;;;;;;14.63;5.37;;;;;;;4.16;64.78;101166.03;4391288;32;33451;-80
2021/12/18 01:35:03;;;;;;;14.87;5.22;;;;;;;4.37;64.64;101167.91;4378780;32;33702;-79
2021/12/18 01:37:30;;;;;;;14.43;5.72;;;;;;;4.38;64.56;101173.19;4378617;32;34418;-80
2021/12/18 01:40:01;;;;;;;17.30;6.07;;;;;;;4.22;65.19;101175.53;4378529;32;32086;-83
2021/12/18 01:53:28;;;;;;;12.60;5.75;;;;;;;4.61;64.17;101173.91;4380576;32;32105;-80
2021/12/18 01:55:56;;;;;;;12.00;5.22;;;;;;;4.58;64.40;101176.88;4378610;32;33807;-79
2021/12/18 01:58:25;;;;;;;11.95;5.50;;;;;;;4.54;64.21;101181.75;4378504;32;33107;-79
2021/12/18 02:00:56;;;;;;;11.57;5.62;;;;;;;4.92;63.04;101185.66;4379075;32;34884;-79
2021/12/18 02:03:27;;;;;;;13.18;5.10;;;;;;;4.90;62.81;101190.38;4378620;32;31610;-79
2021/12/18 02:05:55;;;;;;;15.95;5.93;;;;;;;4.41;64.38;101191.97;4390807;32;33497;-79
2021/12/18 02:08:25;;;;;;;14.13;5.47;;;;;;;4.87;63.11;101182.47;4378502;32;35152;-79
2021/12/18 02:11:11;;;;;;;12.82;5.45;;;;;;;4.71;63.51;101182.97;4390871;32;34321;-79
2021/12/18 02:22:01;;;;;;;10.65;4.62;;;;;;;5.20;61.48;101197.69;4382375;32;32387;-79
2021/12/18 02:24:31;;;;;;;14.25;6.00;;;;;;;5.09;61.83;101200.50;4380526;32;32513;-79
2021/12/18 02:27:00;;;;;;;12.15;5.10;;;;;;;4.73;62.49;101204.59;4380747;32;33221;-80
2021/12/18 02:29:31;;;;;;;11.05;4.32;;;;;;;5.08;61.54;101186.03;4380591;32;34413;-79
2021/12/18 02:31:58;;;;;;;10.27;4.60;;;;;;;4.75;62.69;101205.31;4392935;32;32454;-79
2021/12/18 02:34:31;;;;;;;12.63;4.40;;;;;;;4.87;62.08;101204.25;4392892;32;34079;-79
2021/12/18 02:37:05;;;;;;;10.68;4.53;;;;;;;5.12;61.40;101197.50;4392931;32;33781;-79
2021/12/18 02:40:50;;;;;;;9.77;4.93;;;;;;;5.41;60.31;101206.59;4380773;32;34386;-79
2021/12/18 02:42:24;;;;;;;9.60;4.60;;;;;;;5.13;61.31;101199.22;4386988;32;32340;-79
2021/12/18 02:44:52;;;;;;;11.75;4.53;;;;;;;5.07;61.31;101208.78;4380700;32;34271;-79
2021/12/18 02:47:20;;;;;;;12.55;5.28;;;;;;;5.25;60.86;101209.84;4380585;32;34411;-79
2021/12/18 02:49:50;;;;;;;11.57;5.12;;;;;;;5.36;60.44;101227.06;4380374;32;32918;-79
2021/12/18 02:52:19;;;;;;;13.55;4.95;;;;;;;5.45;60.19;101221.66;4392742;32;34551;-79
2021/12/18 02:54:46;;;;;;;11.75;5.07;;;;;;;5.39;60.23;101232.25;4384549;32;31859;-79
2021/12/18 02:57:14;;;;;;;14.63;5.22;;;;;;;5.50;59.77;101230.28;4368022;32;33515;-79
2021/12/18 02:59:48;;;;;;;13.88;5.47;;;;;;;5.49;59.91;101217.66;4367971;32;34104;-79
2021/12/18 03:02:19;;;;;;;15.15;5.93;;;;;;;5.34;60.64;101216.31;4368121;32;33938;-79
2021/12/18 03:04:53;;;;;;;9.98;4.68;;;;;;;5.12;61.15;101209.25;4381117;32;34011;-79
2021/12/18 03:07:24;;;;;;;11.35;4.50;;;;;;;5.37;60.70;101216.03;4357950;32;32336;-79
2021/12/18 03:23:49;;;;;;;9.30;4.43;;;;;;;5.24;59.93;101229.03;4372613;32;33184;-79
2021/12/18 03:26:17;;;;;;;10.00;4.75;;;;;;;4.85;61.29;101242.47;4372381;32;34246;-79
2021/12/18 03:28:45;;;;;;;14.35;5.43;;;;;;;4.44;63.05;101247.91;4368066;32;32219;-79
2021/12/18 03:31:12;;;;;;;15.32;5.50;;;;;;;4.84;61.92;101254.34;4367668;32;34237;-79
2021/12/18 03:33:41;;;;;;;12.23;4.85;;;;;;;4.89;61.49;101251.22;4367791;32;33774;-79
2021/12/18 03:36:08;;;;;;;14.25;5.68;;;;;;;4.61;62.23;101247.31;4367450;32;33357;-79
2021/12/18 03:38:36;;;;;;;10.88;5.05;;;;;;;4.81;62.06;101251.88;4367833;32;33696;-79
2021/12/18 03:41:04;;;;;;;13.15;6.00;;;;;;;4.71;62.25;101256.41;4355304;32;34017;-79
2021/12/18 03:43:32;;;;;;;13.10;5.55;;;;;;;4.50;62.72;101272.72;4367504;32;33407;-79
2021/12/18 03:45:59;;;;;;;17.98;6.87;;;;;;;4.70;62.47;101256.53;4367536;32;31673;-79
2021/12/18 03:48:27;;;;;;;14.38;6.70;;;;;;;4.51;62.91;101260.84;4367794;32;34375;-79
2021/12/18 03:50:55;;;;;;;16.62;6.43;;;;;;;4.66;62.15;101250.50;4367641;32;34392;-79
2021/12/18 03:53:23;;;;;;;13.60;6.05;;;;;;;4.55;62.28;101243.25;4367461;32;32548;-79
2021/12/18 03:55:52;;;;;;;16.77;5.97;;;;;;;4.21;63.56;101249.88;4367758;32;34245;-79
2021/12/18 03:58:20;;;;;;;17.83;6.40;;;;;;;4.73;62.24;101253.53;4367586;32;33863;-79
2021/12/18 04:00:48;;;;;;;16.15;6.15;;;;;;;4.79;61.99;101251.16;4367350;32;32881;-79
2021/12/18 04:03:16;;;;;;;15.80;5.80;;;;;;;4.84;61.99;101258.91;4367502;32;34654;-79
2021/12/18 04:05:43;;;;;;;15.57;6.82;;;;;;;4.73;61.65;101268.00;4367303;32;33771;-79
2021/12/18 04:08:11;;;;;;;18.02;7.18;;;;;;;5.14;60.67;101268.97;4367531;32;34684;-79
2021/12/18 04:10:40;;;;;;;18.55;7.30;;;;;;;4.76;61.58;101269.59;4367680;32;34347;-79
2021/12/18 04:13:08;;;;;;;13.52;6.12;;;;;;;4.64;62.23;101260.63;4367186;32;34113;-79
2021/12/18 04:15:37;;;;;;;12.52;5.57;;;;;;;4.86;61.41;101246.03;4367217;32;31783;-79
2021/12/18 04:18:05;;;;;;;15.35;6.22;;;;;;;4.50;62.51;101242.81;4367489;32;33712;-79
2021/12/18 04:20:33;;;;;;;13.23;5.72;;;;;;;4.69;62.15;101243.94;4367376;32;34472;-79
2021/12/18 04:23:01;;;;;;;12.07;5.80;;;;;;;4.58;61.91;101239.41;4367552;32;34596;-79
2021/12/18 04:25:29;;;;;;;15.48;5.62;;;;;;;4.93;61.10;101237.22;4355125;32;31804;-79
2021/12/18 04:27:56;;;;;;;17.25;6.55;;;;;;;4.77;61.71;101242.25;4367066;32;32301;-79
2021/12/18 04:30:24;;;;;;;14.23;6.00;;;;;;;4.60;62.23;101257.31;4367418;32;34367;-79
2021/12/18 04:32:56;;;;;;;17.42;5.50;;;;;;;4.39;62.92;101263.75;4368227;32;34078;-79
2021/12/18 04:35:24;;;;;;;12.55;5.95;;;;;;;4.45;62.66;101264.09;4366954;32;33572;-79
2021/12/18 04:37:51;;;;;;;12.32;6.28;;;;;;;4.37;63.10;101265.75;4367363;32;33628;-79
2021/12/18 04:40:24;;;;;;;11.05;5.30;;;;;;;4.09;63.79;101269.94;4367038;32;35238;-79
2021/12/18 04:42:53;;;;;;;11.93;5.32;;;;;;;4.57;62.39;101263.03;4367645;32;33427;-79
2021/12/18 04:45:21;;;;;;;10.23;4.95;;;;;;;4.69;61.72;101266.53;4379443;32;32859;-79
2021/12/18 04:47:49;;;;;;;13.32;5.32;;;;;;;4.28;62.58;101284.56;4367411;32;34300;-79
2021/12/18 04:50:17;;;;;;;10.52;5.22;;;;;;;4.68;61.88;101281.13;4366956;32;32951;-79
2021/12/18 04:52:45;;;;;;;13.13;5.43;;;;;;;4.69;61.70;101288.28;4393057;32;34685;-79
2021/12/18 04:55:13;;;;;;;18.58;6.35;;;;;;;4.95;60.86;101300.50;4366852;32;31939;-79
2021/12/18 04:57:40;;;;;;;13.95;6.05;;;;;;;4.43;62.14;101306.00;4366901;32;32279;-79
2021/12/18 05:00:11;;;;;;;16.08;6.18;;;;;;;4.34;62.43;101315.78;4367220;32;35164;-79
2021/12/18 05:02:42;;;;;;;12.63;5.50;;;;;;;4.78;61.21;101316.56;4354682;32;32448;-79
2021/12/18 05:05:12;;;;;;;10.07;4.97;;;;;;;4.98;60.68;101315.72;4366974;32;31778;-79
2021/12/18 05:07:41;;;;;;;13.40;6.30;;;;;;;4.61;61.16;101312.56;4367211;32;33713;-79
2021/12/18 05:10:11;;;;;;;13.82;5.75;;;;;;;5.06;60.35;101317.75;4379148;32;34589;-79
2021/12/18 05:12:39;;;;;;;14.23;6.53;;;;;;;4.94;60.23;101320.56;4379287;32;34568;-79
2021/12/18 05:15:07;;;;;;;12.55;5.82;;;;;;;4.92;60.17;101335.28;4366717;32;31889;-79
2021/12/18 05:17:35;;;;;;;11.75;4.80;;;;;;;5.22;59.48;101331.72;4366830;32;34521;-78
2021/12/18 05:20:03;;;;;;;12.98;5.55;;;;;;;4.70;60.57;101347.12;4366749;32;33995;-79
2021/12/18 05:22:30;;;;;;;14.40;5.28;;;;;;;4.94;59.86;101344.16;4366754;32;33828;-79
2021/12/18 05:24:58;;;;;;;13.85;4.82;;;;;;;4.83;60.18;101345.09;4354309;32;31790;-79
2021/12/18 05:27:26;;;;;;;10.65;4.30;;;;;;;5.07;59.61;101354.88;4367089;32;33599;-79
2021/12/18 05:29:54;;;;;;;10.20;4.75;;;;;;;5.32;58.92;101346.25;4366412;32;34060;-79
2021/12/18 05:32:21;;;;;;;9.27;4.47;;;;;;;5.12;59.02;101349.88;4366550;32;32361;-79
2021/12/18 05:34:53;;;;;;;12.43;5.15;;;;;;;4.82;59.53;101354.25;4366771;32;33273;-79
2021/12/18 05:37:32;;;;;;;11.00;5.10;;;;;;;5.01;59.24;101342.66;4378842;32;33654;-79
2021/12/18 05:40:00;;;;;;;11.65;4.72;;;;;;;5.13;58.92;101354.34;4367835;32;35286;-79
2021/12/18 05:42:28;;;;;;;12.43;4.47;;;;;;;5.33;58.15;101350.72;4366710;32;33951;-79
2021/12/18 05:44:56;;;;;;;12.20;5.05;;;;;;;5.14;58.58;101347.91;4366344;32;31631;-79
2021/12/18 05:47:23;;;;;;;15.88;5.28;;;;;;;4.67;59.97;101344.66;4367268;32;32282;-79
2021/12/18 05:49:51;;;;;;;11.93;4.70;;;;;;;4.93;58.67;101353.31;4368513;32;35200;-78
2021/12/18 05:52:19;;;;;;;9.75;4.90;;;;;;;4.63;59.96;101364.97;4368391;32;34505;-79
2021/12/18 05:54:47;;;;;;;12.77;4.68;;;;;;;4.41;60.62;101354.19;4355849;32;32753;-79
2021/12/18 05:57:14;;;;;;;13.60;4.87;;;;;;;4.32;60.98;101366.69;4368276;32;33687;-79
2021/12/18 05:59:42;;;;;;;12.07;5.50;;;;;;;4.16;61.87;101371.66;4368704;32;34560;-79
2021/12/18 06:02:11;;;;;;;12.65;5.32;;;;;;;4.44;61.01;101376.53;4380736;32;34153;-79
2021/12/18 06:04:39;;;;;;;10.70;5.32;;;;;;;4.19;61.69;101374.12;4380397;32;31761;-79
2021/12/18 06:07:07;;;;;;;14.60;5.55;;;;;;;4.55;60.64;101364.78;4368006;32;32254;-79
2021/12/18 06:09:37;;;;;;;12.80;5.25;;;;;;;3.80;62.96;101375.56;4368387;32;33074;-79
2021/12/18 06:12:05;;;;;;;12.80;6.05;;;;;;;4.06;62.13;101368.84;4368286;32;34059;-78
2021/12/18 06:14:36;;;;;;;16.75;6.20;;;;;;;3.53;63.97;101367.78;4368153;32;32604;-80
2021/12/18 06:17:06;;;;;;;17.12;7.10;;;;;;;3.94;62.89;101369.84;4380687;32;33682;-80
2021/12/18 06:19:34;;;;;;;14.13;6.62;;;;;;;4.35;61.52;101376.44;4357313;32;33038;-80
2021/12/18 06:22:02;;;;;;;18.73;8.18;;;;;;;4.06;62.59;101373.41;4369856;32;33377;-80
2021/12/18 06:24:29;;;;;;;14.27;6.45;;;;;;;4.29;61.24;101388.69;4368927;32;34009;-80
2021/12/18 06:27:00;;;;;;;13.40;5.70;;;;;;;4.45;61.00;101381.00;4356560;32;32248;-80
2021/12/18 06:29:28;;;;;;;13.82;6.50;;;;;;;4.55;60.69;101384.62;4369961;32;33969;-80
2021/12/18 06:31:55;;;;;;;14.32;6.32;;;;;;;4.40;61.03;101385.09;4369261;32;34046;-77
2021/12/18 06:34:26;;;;;;;13.18;5.62;;;;;;;3.94;61.94;101383.41;4370173;32;32058;-80
2021/12/18 06:36:53;;;;;;;14.38;5.60;;;;;;;3.81;62.58;101382.72;4382542;32;34531;-80
2021/12/18 06:39:21;;;;;;;14.05;5.97;;;;;;;4.03;62.29;101379.09;4369721;32;35363;-80
2021/12/18 06:41:49;;;;;;;11.57;5.50;;;;;;;4.16;61.79;101377.97;4380884;32;34007;-80
2021/12/18 06:44:17;;;;;;;16.83;5.57;;;;;;;4.20;61.73;101397.59;4355950;32;31890;-80
2021/12/18 06:46:48;;;;;;;10.57;5.10;;;;;;;4.11;61.62;101392.91;4367743;32;32252;-79
2021/12/18 06:49:18;;;;;;;12.50;6.03;;;;;;;4.06;61.83;101401.44;4368029;32;33904;-80
2021/12/18 06:51:46;;;;;;;13.35;5.87;;;;;;;4.39;61.09;101405.97;4368177;32;34232;-80
2021/12/18 06:54:13;;;;;;;11.18;5.18;;;;;;;4.68;60.15;101411.66;4367664;32;33264;-80
2021/12/18 06:56:44;;;;;;;11.90;6.03;;;;;;;4.38;60.96;101420.53;4368017;32;34535;-81
2021/12/18 06:59:14;;;;;;;10.25;4.85;;;;;;;4.29;61.19;101411.28;4367252;32;35143;-80
2021/12/18 07:01:42;;;;;;;19.27;6.00;;;;;;;4.45;60.68;101418.19;4368055;32;33837;-78
2021/12/18 07:04:10;;;;;;;10.52;5.03;;;;;;;4.10;61.91;101410.19;4355471;32;31582;-80
2021/12/18 07:06:41;;;;;;;12.32;5.30;;;;;;;4.20;62.46;101412.03;4380393;32;34716;-80
2021/12/18 07:09:09;;;;;;;14.02;5.45;;;;;;;4.43;61.55;101412.87;4383391;32;35123;-81
2021/12/18 07:11:36;;;;;;;12.48;5.37;;;;;;;4.76;60.45;101411.88;4361124;32;32434;-81
2021/12/18 07:14:04;;;;;;;12.32;6.18;;;;;;;4.68;60.25;101400.78;4372708;32;32147;-80
2021/12/18 07:16:32;;;;;;;11.07;5.10;;;;;;;4.80;60.03;101405.19;4384449;32;32696;-80
2021/12/18 07:19:03;;;;;;;11.43;4.70;;;;;;;4.88;59.92;101402.69;4387103;32;33589;-80
2021/12/18 07:21:33;;;;;;;10.95;5.57;;;;;;;4.86;59.84;101393.78;4375369;32;32979;-82
2021/12/18 07:24:04;;;;;;;12.32;5.60;;;;;;;4.50;60.76;101402.34;4387781;32;33412;-81
2021/12/18 07:26:37;;;;;;;17.35;8.35;;;;;;;4.87;59.97;101395.53;4384304;32;31406;-81
2021/12/18 07:29:06;;;;;;;16.35;6.37;;;;;;;4.45;61.40;101402.75;4386136;32;33002;-78
2021/12/18 07:31:36;;;;;;;10.05;5.12;;;;;;;4.86;60.20;101399.22;4387032;32;34822;-80
2021/12/18 07:34:06;;;;;;;11.85;5.57;;;;;;;4.81;60.01;101404.19;4375490;32;33254;-77
2021/12/18 07:36:34;;;;;;;15.45;5.60;;;;;;;4.49;61.07;101415.09;4386508;32;34658;-80
2021/12/18 07:39:05;;;;;;;10.80;5.62;;;;;;;4.82;60.31;101410.50;4383902;32;35046;-80
2021/12/18 07:41:33;;;;;;;11.95;5.78;;;;;;;4.82;60.65;101424.97;4365356;32;32453;-80
2021/12/18 07:44:06;;;;;;;18.77;6.70;;;;;;;4.31;61.74;101422.03;4395262;32;33290;-80
2021/12/18 07:46:36;;;;;;;16.08;7.05;;;;;;;4.55;61.38;101427.31;4394946;32;34002;-81
2021/12/18 07:49:08;;;;;;;18.50;8.07;;;;;;;4.56;61.97;101445.31;4382862;32;34316;-81
2021/12/18 07:51:41;;;;;;;13.15;5.97;;;;;;;4.77;61.12;101439.94;4395481;32;34756;-79
2021/12/18 07:54:10;;;;;;;10.73;5.43;;;;;;;4.71;63.25;101444.03;4395162;32;33013;-80
2021/12/18 07:56:37;;;;;;;14.90;6.65;;;;;;;4.46;62.17;101450.69;4382734;32;32288;-80
2021/12/18 07:59:06;;;;;;;15.32;6.07;;;;;;;4.68;61.65;101448.88;4389348;32;32994;-80
2021/12/18 08:01:39;;;;;;;13.55;5.97;;;;;;;4.77;61.49;101459.84;4379530;32;34477;-76
2021/12/18 08:04:14;;;;;;;15.70;6.28;;;;;;;4.23;62.57;101462.56;4380041;32;33384;-77
2021/12/18 08:06:49;;;;;;;15.02;6.05;;;;;;;4.43;62.82;101463.66;4380281;32;33646;-77
2021/12/18 08:09:23;;;;;;;16.33;7.05;;;;;;;4.22;63.00;101452.69;4367048;32;32887;-76
2021/12/18 08:11:58;;;;;;;16.33;6.60;;;;;;;4.61;62.25;101448.50;4379782;32;33798;-76
2021/12/18 08:14:32;;;;;;;18.67;7.83;;;;;;;4.04;64.33;101444.16;4380570;32;33585;-76
2021/12/18 08:17:05;;;;;;;12.23;6.30;;;;;;;4.55;63.11;101449.06;4380127;32;32941;-76
2021/12/18 08:19:35;;;;;;;16.95;8.52;;;;;;;4.58;62.45;101448.78;4379172;32;34270;-76
2021/12/18 08:22:06;;;;;;;32.72;14.43;;;;;;;4.19;63.25;101451.09;4366414;32;32279;-77
2021/12/18 08:24:38;;;;;;;24.10;10.65;;;;;;;4.19;63.89;101458.38;4380209;32;33482;-76
2021/12/18 08:27:12;;;;;;;43.22;14.52;;;;;;;4.18;63.96;101462.94;4379309;32;33523;-76
2021/12/18 08:29:46;;;;;;;20.25;9.35;;;;;;;4.35;63.62;101447.97;4379614;32;34259;-76
2021/12/18 08:32:15;;;;;;;14.48;6.65;;;;;;;4.23;63.61;101451.69;4367128;32;33407;-76
2021/12/18 08:34:48;;;;;;;16.10;6.65;;;;;;;4.21;64.13;101446.38;4367421;32;30993;-76
2021/12/18 08:37:20;;;;;;;11.27;5.35;;;;;;;4.51;62.79;101443.00;4379447;32;33187;-76
2021/12/18 08:39:56;;;;;;;25.83;9.48;;;;;;;3.91;63.99;101457.88;4366896;32;33965;-76
2021/12/18 08:42:28;;;;;;;14.65;6.87;;;;;;;3.85;64.93;101463.81;4367282;32;32570;-76
2021/12/18 08:44:59;;;;;;;12.00;5.87;;;;;;;4.28;63.78;101455.75;4367586;32;31822;-76
2021/12/18 08:47:30;;;;;;;12.05;5.20;;;;;;;4.45;62.93;101453.53;4367539;32;32307;-76
2021/12/18 08:50:06;;;;;;;26.87;13.30;;;;;;;3.80;64.25;101448.88;4367288;32;33701;-76
2021/12/18 08:52:38;;;;;;;24.12;12.40;;;;;;;4.21;63.49;101462.69;4379713;32;33934;-76
2021/12/18 08:55:10;;;;;;;16.35;6.65;;;;;;;3.97;64.47;101456.50;4379924;32;33550;-76
2021/12/18 08:57:40;;;;;;;22.50;9.00;;;;;;;4.25;63.09;101447.88;4367149;32;33320;-76
2021/12/18 09:00:13;;;;;;;15.80;6.28;;;;;;;4.14;64.01;101455.16;4367206;32;32770;-76
2021/12/18 09:02:49;;;;;;;20.02;7.68;;;;;;;4.31;63.17;101446.50;4379314;32;32484;-76
2021/12/18 09:05:21;;;;;;;12.93;5.37;;;;;;;4.45;62.36;101450.81;4379908;32;33527;-76
2021/12/18 09:07:51;;;;;;;11.85;5.05;;;;;;;4.73;61.80;101458.38;4367135;32;33226;-76
2021/12/18 09:10:20;;;;;;;17.62;6.72;;;;;;;4.43;62.10;101455.50;4354847;32;32706;-76
2021/12/18 09:12:52;;;;;;;12.77;5.80;;;;;;;4.55;61.82;101443.63;4354744;32;33497;-76
2021/12/18 09:15:26;;;;;;;14.07;6.18;;;;;;;4.93;60.65;101440.37;4367872;32;33763;-76
2021/12/18 09:17:56;;;;;;;25.27;12.65;;;;;;;4.74;61.17;101441.06;4367963;32;34484;-76
2021/12/18 09:20:26;;;;;;;15.50;7.15;;;;;;;4.51;62.70;101450.31;4375849;32;34199;-76
2021/12/18 09:22:58;;;;;;;14.80;6.40;;;;;;;4.71;61.33;101438.59;4357047;32;34139;-76
2021/12/18 09:25:34;;;;;;;22.70;8.15;;;;;;;5.10;60.22;101430.78;4371192;32;33435;-76
2021/12/18 09:28:05;;;;;;;14.32;5.80;;;;;;;4.92;60.06;101446.81;4370269;32;33331;-76
2021/12/18 09:30:39;;;;;;;16.62;6.72;;;;;;;4.77;59.79;101421.78;4364150;32;33929;-76
2021/12/18 09:33:11;;;;;;;12.00;5.30;;;;;;;4.80;60.37;101432.41;4366191;32;33128;-76
2021/12/18 09:35:44;;;;;;;7.85;4.10;;;;;;;4.65;60.92;101436.41;4367585;32;33344;-76
2021/12/18 09:38:18;;;;;;;12.77;6.07;;;;;;;4.57;60.60;101437.03;4379365;32;33962;-76
2021/12/18 09:40:51;;;;;;;16.05;6.57;;;;;;;4.75;60.49;101426.47;4376700;32;35251;-76
2021/12/18 09:43:21;;;;;;;10.73;5.18;;;;;;;5.16;59.54;101431.13;4376843;32;33817;-76
2021/12/18 09:45:55;;;;;;;10.02;4.68;;;;;;;4.91;59.75;101436.94;4364118;32;33516;-76
2021/12/18 09:48:27;;;;;;;49.60;25.37;;;;;;;5.19;58.35;101436.31;4364877;32;33463;-75
2021/12/18 09:50:57;;;;;;;31.45;13.25;;;;;;;5.43;58.70;101441.47;4364321;32;34549;-78
2021/12/18 09:53:31;;;;;;;14.30;6.15;;;;;;;5.22;58.89;101444.19;4364238;32;33813;-76
2021/12/18 09:56:02;;;;;;;10.98;4.93;;;;;;;5.33;57.85;101432.38;4376542;32;34549;-76
2021/12/18 09:58:31;;;;;;;11.70;4.90;;;;;;;5.18;57.92;101428.28;4376015;32;33096;-76
2021/12/18 10:01:02;;;;;;;10.35;4.75;;;;;;;5.46;57.43;101424.00;4370698;32;33091;-76
2021/12/18 10:03:51;;;;;;;11.07;4.32;;;;;;;5.43;57.26;101425.12;4360023;32;34059;-76
2021/12/18 10:06:33;;;;;;;13.27;5.22;;;;;;;5.58;56.74;101417.50;4349269;32;33136;-76
2021/12/18 10:09:18;;;;;;;10.90;4.87;;;;;;;5.63;56.72;101421.53;4376001;32;33696;-76
2021/12/18 10:11:50;;;;;;;14.55;6.00;;;;;;;5.68;56.25;101425.72;4373180;32;34425;-76
2021/12/18 10:14:38;;;;;;;11.48;5.10;;;;;;;6.08;55.55;101413.03;4360828;32;34297;-76
2021/12/18 10:17:20;;;;;;;12.30;5.87;;;;;;;5.40;56.65;101424.53;4361283;32;33309;-76
2021/12/18 10:19:53;;;;;;;10.93;4.50;;;;;;;5.70;56.48;101415.56;4361077;32;32120;-76
2021/12/18 10:22:30;;;;;;;11.20;4.65;;;;;;;5.83;55.49;101416.19;4361009;32;32383;-76
2021/12/18 10:25:06;;;;;;;12.55;4.55;;;;;;;5.87;55.62;101417.63;4345450;32;33840;-76
2021/12/18 10:27:36;;;;;;;10.10;4.40;;;;;;;5.67;55.82;101419.41;4368229;32;33233;-76
2021/12/18 10:30:19;;;;;;;22.90;10.60;;;;;;;5.72;55.95;101414.44;4363529;32;33598;-76
2021/12/18 10:33:10;;;;;;;12.98;5.32;;;;;;;5.85;56.13;101416.94;4349449;32;32911;-76
2021/12/18 10:35:43;;;;;;;12.50;5.95;;;;;;;6.01;55.63;101403.66;4369664;32;33576;-76
2021/12/18 10:38:49;;;;;;;12.95;5.03;;;;;;;6.11;55.19;101393.66;4357494;32;32693;-76
2021/12/18 10:41:28;;;;;;;13.40;5.85;;;;;;;5.84;55.70;101390.69;4365972;32;33797;-76
2021/12/18 10:44:12;;;;;;;9.65;4.50;;;;;;;6.11;57.28;101390.06;4367470;32;32523;-76
2021/12/18 10:46:43;;;;;;;17.42;4.10;;;;;;;5.97;56.23;101371.38;4368146;32;32751;-76
2021/12/18 10:49:13;;;;;;;15.95;6.72;;;;;;;5.77;55.73;101371.28;4364206;32;33376;-76
2021/12/18 10:51:41;;;;;;;19.27;8.57;;;;;;;6.39;56.31;101366.63;4351644;32;34348;-76
2021/12/18 10:54:17;;;;;;;11.25;4.50;;;;;;;6.56;54.24;101372.22;4369607;32;34123;-76
2021/12/18 10:56:46;;;;;;;;;;;;;;;6.40;53.49;101360.16;4370439;32;33469;-76
2021/12/18 10:59:21;;;;;;;8.05;4.25;;;;;;;6.28;53.29;101356.69;4374796;32;33802;-76
2021/12/18 11:01:54;;;;;;;11.57;5.07;;;;;;;6.62;52.54;101357.16;4346087;32;33736;-76
2021/12/18 11:04:35;;;;;;;8.07;3.78;;;;;;;6.37;53.22;101358.56;4357591;32;34268;-76
2021/12/18 11:07:21;;;;;;;12.55;4.07;;;;;;;6.32;52.30;101349.97;4351986;32;32418;-76
2021/12/18 11:10:11;;;;;;;9.57;3.37;;;;;;;6.70;51.50;101356.44;4346121;32;32012;-76
2021/12/18 11:15:30;;;;;;;10.80;3.78;;;;;;;6.69;51.19;101333.75;4371847;32;35094;-76
2021/12/18 11:18:01;;;;;;;8.73;3.60;;;;;;;6.71;51.28;101331.72;4358207;32;33802;-76
2021/12/18 11:20:31;;;;;;;9.32;4.18;;;;;;;6.79;51.20;101329.16;4358273;32;33627;-76
2021/12/18 11:23:01;;;;;;;8.80;3.75;;;;;;;6.94;51.04;101322.25;4367706;32;33699;-76
2021/12/18 11:25:32;;;;;;;10.88;4.25;;;;;;;6.68;50.93;101315.66;4356311;32;33140;-76
2021/12/18 11:28:05;;;;;;;8.93;3.65;;;;;;;7.09;50.22;101305.41;4367581;32;33158;-76
2021/12/18 11:30:38;;;;;;;8.63;3.30;;;;;;;7.27;50.11;101304.47;4368385;32;33358;-76
2021/12/18 11:33:07;;;;;;;8.95;3.28;;;;;;;7.06;50.02;101305.72;4341430;32;33712;-76
2021/12/18 11:35:41;;;;;;;6.75;3.08;;;;;;;6.63;50.63;101312.50;4338830;32;35364;-76
2021/12/18 11:38:16;;;;;;;25.62;13.10;;;;;;;6.34;51.18;101295.28;4326671;32;33248;-76
2021/12/18 11:40:47;;;;;;;8.85;3.70;;;;;;;6.70;50.62;101286.34;4362296;32;34346;-77
2021/12/18 11:43:35;;;;;;;9.07;4.03;;;;;;;7.19;50.25;101281.66;4362490;32;33855;-77
2021/12/18 11:46:29;;;;;;;9.88;3.67;;;;;;;7.39;49.20;101283.31;4349702;32;35111;-76
2021/12/18 11:49:00;;;;;;;10.20;3.60;;;;;;;7.74;50.11;101289.94;4338069;32;31870;-76
2021/12/18 11:51:34;;;;;;;7.97;3.85;;;;;;;7.60;48.99;101275.75;4355448;32;214906;-76
2021/12/18 11:54:04;;;;;;;9.13;3.50;;;;;;;7.17;49.98;101283.66;4362710;32;33831;-77
2021/12/18 11:56:46;;;;;;;7.37;3.20;;;;;;;7.01;50.55;101269.81;4362886;32;34355;-76
2021/12/18 11:59:41;;;;;;;30.20;13.77;;;;;;;7.35;49.49;101275.56;4350990;32;34045;-77
2021/12/18 12:02:15;;;;;;;15.05;6.47;;;;;;;7.13;50.24;101265.91;4358868;32;33140;-77
2021/12/18 12:05:06;;;;;;;11.30;4.97;;;;;;;7.26;49.88;101267.25;4362579;32;33406;-76
2021/12/18 12:07:42;;;;;;;14.13;5.62;;;;;;;7.37;49.61;101266.22;4338629;32;32961;-76
2021/12/18 12:10:21;;;;;;;6.28;3.20;;;;;;;7.25;49.38;101256.50;4350361;32;33913;-76
2021/12/18 12:12:52;;;;;;;7.65;3.80;;;;;;;7.63;49.21;101255.47;4363747;32;33167;-76
2021/12/18 12:15:26;;;;;;;7.82;3.95;;;;;;;7.21;50.04;101264.13;4362293;32;33869;-76
2021/12/18 12:18:07;;;;;;;7.22;3.70;;;;;;;7.48;50.40;101265.16;4362299;32;34218;-76
2021/12/18 12:20:46;;;;;;;10.48;4.00;;;;;;;7.02;50.39;101268.78;4362221;32;35085;-76
2021/12/18 12:23:22;;;;;;;10.15;4.18;;;;;;;7.38;49.93;101273.41;4362562;32;33176;-77
2021/12/18 12:25:51;;;;;;;9.15;4.22;;;;;;;7.69;49.76;101267.66;4350622;32;34633;-76
2021/12/18 12:28:23;;;;;;;7.43;3.83;;;;;;;7.35;49.79;101270.97;4361997;32;34477;-77
2021/12/18 12:31:06;;;;;;;8.80;3.28;;;;;;;7.40;49.83;101271.37;4362084;32;34040;-76
2021/12/18 12:33:37;;;;;;;10.52;4.22;;;;;;;7.22;49.77;101276.75;4349814;32;33541;-76